createdAt,value
2023-02-28T00:01:02.444Z,-1.56
2023-02-28T00:04:10.500Z,-1.56
2023-02-28T00:07:17.717Z,-1.57
2023-02-28T00:10:26.137Z,-1.56
2023-02-28T00:13:34.059Z,-1.57
2023-02-28T00:16:41.486Z,-1.63
2023-02-28T00:19:49.203Z,-1.64
2023-02-28T00:22:57.140Z,-1.66
2023-02-28T00:26:04.941Z,-1.70
2023-02-28T00:29:12.959Z,-1.74
2023-02-28T00:32:20.764Z,-1.77
2023-02-28T00:35:28.513Z,-1.80
2023-02-28T00:38:36.861Z,-1.78
2023-02-28T00:41:44.559Z,-1.81
2023-02-28T00:44:52.239Z,-1.82
2023-02-28T00:47:59.922Z,-1.84
2023-02-28T00:51:08.049Z,-1.78
2023-02-28T00:54:15.651Z,-1.72
2023-02-28T00:57:23.441Z,-1.69
2023-02-28T01:00:31.311Z,-1.62
2023-02-28T01:03:39.363Z,-1.62
2023-02-28T01:06:47.191Z,-1.59
2023-02-28T01:09:59.232Z,-1.56
2023-02-28T01:13:06.852Z,-1.53
2023-02-28T01:16:14.629Z,-1.45
2023-02-28T01:19:22.793Z,-1.39
2023-02-28T01:22:30.242Z,-1.38
2023-02-28T01:25:38.560Z,-1.38
2023-02-28T01:28:47.152Z,-1.31
2023-02-28T01:31:54.586Z,-1.30
2023-02-28T01:35:02.562Z,-1.30
2023-02-28T01:38:21.648Z,-1.23
2023-02-28T01:41:15.033Z,-1.20
2023-02-28T01:44:23.005Z,-1.15
2023-02-28T01:47:31.522Z,-1.10
2023-02-28T01:50:38.810Z,-1.12
2023-02-28T01:53:47.060Z,-1.15
2023-02-28T01:56:54.864Z,-1.18
2023-02-28T02:00:02.547Z,-1.25
2023-02-28T02:03:10.373Z,-1.36
2023-02-28T02:06:17.894Z,-1.43
2023-02-28T02:09:25.491Z,-1.49
2023-02-28T02:12:33.151Z,-1.56
2023-02-28T02:15:41.416Z,-1.60
2023-02-28T02:18:49.292Z,-1.62
2023-02-28T02:21:56.692Z,-1.63
2023-02-28T02:25:04.870Z,-1.63
2023-02-28T02:28:12.231Z,-1.62
2023-02-28T02:31:20.435Z,-1.60
2023-02-28T02:34:28.774Z,-1.62
2023-02-28T02:37:36.578Z,-1.57
2023-02-28T02:40:44.322Z,-1.53
2023-02-28T02:43:52.133Z,-1.54
2023-02-28T02:46:59.904Z,-1.56
2023-02-28T02:50:07.332Z,-1.49
2023-02-28T02:53:14.971Z,-1.43
2023-02-28T02:56:23.184Z,-1.33
2023-02-28T02:59:30.555Z,-1.27
2023-02-28T03:02:38.742Z,-1.21
2023-02-28T03:05:46.725Z,-1.07
2023-02-28T03:08:54.184Z,-0.97
2023-02-28T03:12:02.257Z,-0.83
2023-02-28T03:15:10.201Z,-0.66
2023-02-28T03:18:17.623Z,-0.48
2023-02-28T03:21:25.368Z,-0.36
2023-02-28T03:24:33.070Z,-0.27
2023-02-28T03:27:41.198Z,-0.29
2023-02-28T03:30:49.684Z,-0.31
2023-02-28T03:33:57.594Z,-0.37
2023-02-28T03:37:05.433Z,-0.41
2023-02-28T03:40:13.179Z,-0.50
2023-02-28T03:43:21.084Z,-0.57
2023-02-28T03:46:28.851Z,-0.65
2023-02-28T03:49:36.596Z,-0.68
2023-02-28T03:52:44.827Z,-0.69
2023-02-28T03:55:52.574Z,-0.72
2023-02-28T03:59:00.504Z,-0.78
2023-02-28T04:02:08.559Z,-0.77
2023-02-28T04:05:15.814Z,-0.70
2023-02-28T04:08:23.879Z,-0.66
2023-02-28T04:11:32.054Z,-0.65
2023-02-28T04:14:39.848Z,-0.63
2023-02-28T04:17:47.531Z,-0.66
2023-02-28T04:20:55.280Z,-0.70
2023-02-28T04:24:03.020Z,-0.77
2023-02-28T04:27:10.766Z,-0.78
2023-02-28T04:30:18.562Z,-0.78
2023-02-28T04:33:26.519Z,-0.83
2023-02-28T04:36:33.980Z,-0.86
2023-02-28T04:39:42.043Z,-0.87
2023-02-28T04:42:50.120Z,-0.91
2023-02-28T04:45:57.604Z,-0.89
2023-02-28T04:49:05.173Z,-0.89
2023-02-28T04:52:13.067Z,-0.87
2023-02-28T04:55:21.018Z,-0.97
2023-02-28T04:58:28.765Z,-1.05
2023-02-28T05:01:36.198Z,-1.05
2023-02-28T05:04:44.210Z,-1.03
2023-02-28T05:07:51.845Z,-1.03
2023-02-28T05:10:59.505Z,-0.99
2023-02-28T05:14:07.251Z,-0.94
2023-02-28T05:17:14.703Z,-0.89
2023-02-28T05:20:22.861Z,-0.89
2023-02-28T05:23:30.929Z,-0.94
2023-02-28T05:26:38.501Z,-0.91
2023-02-28T05:29:46.509Z,-0.92
2023-02-28T05:32:53.815Z,-0.91
2023-02-28T05:36:01.451Z,-0.95
2023-02-28T05:39:09.260Z,-0.95
2023-02-28T05:42:16.624Z,-0.95
2023-02-28T05:45:24.655Z,-0.97
2023-02-28T05:48:32.696Z,-1.03
2023-02-28T05:51:39.980Z,-1.05
2023-02-28T05:54:47.913Z,-1.10
2023-02-28T05:57:55.693Z,-1.15
2023-02-28T06:01:05.593Z,-1.20
2023-02-28T06:04:29.245Z,-1.24
2023-02-28T06:07:19.051Z,-1.28
2023-02-28T06:10:26.877Z,-1.33
2023-02-28T06:13:35.048Z,-1.36
2023-02-28T06:16:42.950Z,-1.35
2023-02-28T06:19:50.599Z,-1.31
2023-02-28T06:22:57.993Z,-1.30
2023-02-28T06:26:06.056Z,-1.27
2023-02-28T06:29:14.070Z,-1.23
2023-02-28T06:32:21.792Z,-1.17
2023-02-28T06:35:30.086Z,-1.07
2023-02-28T06:38:38.072Z,-1.03
2023-02-28T06:41:54.562Z,-1.03
2023-02-28T06:44:50.977Z,-1.02
2023-02-28T06:47:58.653Z,-0.95
2023-02-28T06:51:06.620Z,-0.95
2023-02-28T06:54:14.871Z,-1.02
2023-02-28T06:57:22.467Z,-1.06
2023-02-28T07:00:30.442Z,-1.07
2023-02-28T07:03:38.453Z,-1.06
2023-02-28T07:06:46.249Z,-1.09
2023-02-28T07:09:54.190Z,-1.09
2023-02-28T07:13:01.940Z,-1.12
2023-02-28T07:16:10.185Z,-1.06
2023-02-28T07:19:17.862Z,-0.97
2023-02-28T07:22:25.592Z,-0.86
2023-02-28T07:25:33.613Z,-0.75
2023-02-28T07:28:41.323Z,-0.63
2023-02-28T07:31:49.061Z,-0.54
2023-02-28T07:34:57.175Z,-0.51
2023-02-28T07:38:04.564Z,-0.39
2023-02-28T07:41:12.895Z,-0.33
2023-02-28T07:44:20.977Z,-0.30
2023-02-28T07:47:28.392Z,-0.31
2023-02-28T07:50:36.617Z,-0.27
2023-02-28T07:53:44.626Z,-0.11
2023-02-28T07:56:51.959Z,0.15
2023-02-28T08:00:00.196Z,0.48
2023-02-28T08:03:08.038Z,0.78
2023-02-28T08:06:15.445Z,1.01
2023-02-28T08:09:23.447Z,1.28
2023-02-28T08:12:31.596Z,1.50
2023-02-28T08:15:39.102Z,1.65
2023-02-28T08:18:47.278Z,1.89
2023-02-28T08:21:54.980Z,2.02
2023-02-28T08:25:02.927Z,2.20
2023-02-28T08:28:10.454Z,2.35
2023-02-28T08:31:18.172Z,2.49
2023-02-28T08:34:26.015Z,2.52
2023-02-28T08:37:33.600Z,2.55
2023-02-28T08:40:41.586Z,2.55
2023-02-28T08:43:49.440Z,2.55
2023-02-28T08:46:56.857Z,2.58
2023-02-28T08:50:04.845Z,2.58
2023-02-28T08:53:12.541Z,2.63
2023-02-28T08:56:20.155Z,2.69
2023-02-28T08:59:28.156Z,2.74
2023-02-28T09:02:35.904Z,2.73
2023-02-28T09:05:43.810Z,2.79
2023-02-28T09:08:51.984Z,2.88
2023-02-28T09:11:59.314Z,2.87
2023-02-28T09:15:07.483Z,2.89
2023-02-28T09:18:15.931Z,2.87
2023-02-28T09:21:23.387Z,2.82
2023-02-28T09:24:32.232Z,2.79
2023-02-28T09:27:41.886Z,2.81
2023-02-28T09:30:49.522Z,2.85
2023-02-28T09:33:57.639Z,2.89
2023-02-28T09:37:05.934Z,2.94
2023-02-28T09:40:13.601Z,3.00
2023-02-28T09:43:21.331Z,3.10
2023-02-28T09:46:28.998Z,3.31
2023-02-28T09:49:36.913Z,3.52
2023-02-28T09:52:44.904Z,3.64
2023-02-28T09:55:52.386Z,3.64
2023-02-28T09:59:00.253Z,3.67
2023-02-28T10:02:07.920Z,3.76
2023-02-28T10:05:15.346Z,3.76
2023-02-28T10:08:23.599Z,3.85
2023-02-28T10:11:31.079Z,3.92
2023-02-28T10:14:39.439Z,3.97
2023-02-28T10:17:55.221Z,4.03
2023-02-28T10:20:52.086Z,4.03
2023-02-28T10:24:00.087Z,3.98
2023-02-28T10:27:07.689Z,3.89
2023-02-28T10:30:15.678Z,3.94
2023-02-28T10:33:23.910Z,4.01
2023-02-28T10:36:32.175Z,4.21
2023-02-28T10:39:40.391Z,4.32
2023-02-28T10:42:48.241Z,4.37
2023-02-28T10:45:56.251Z,4.39
2023-02-28T10:49:03.750Z,4.32
2023-02-28T10:52:11.414Z,4.33
2023-02-28T10:55:19.742Z,4.39
2023-02-28T10:58:27.439Z,4.61
2023-02-28T11:01:35.631Z,4.72
2023-02-28T11:04:43.995Z,4.86
2023-02-28T11:07:53.398Z,4.84
2023-02-28T11:11:01.770Z,4.91
2023-02-28T11:14:09.806Z,4.94
2023-02-28T11:17:17.172Z,4.84
2023-02-28T11:20:25.703Z,4.83
2023-02-28T11:23:34.835Z,4.84
2023-02-28T11:26:43.200Z,4.89
2023-02-28T11:29:51.222Z,4.99
2023-02-28T11:32:59.170Z,5.05
2023-02-28T11:36:06.754Z,5.10
2023-02-28T11:39:14.591Z,4.95
2023-02-28T11:42:22.243Z,5.02
2023-02-28T11:45:30.384Z,5.20
2023-02-28T11:48:38.239Z,5.28
2023-02-28T11:51:45.856Z,5.28
2023-02-28T11:54:53.886Z,5.35
2023-02-28T11:58:01.889Z,5.13
2023-02-28T12:01:09.478Z,4.92
2023-02-28T12:04:17.685Z,5.02
2023-02-28T12:07:25.418Z,5.12
2023-02-28T12:10:33.528Z,5.16
2023-02-28T12:13:41.555Z,5.17
2023-02-28T12:16:48.883Z,5.38
2023-02-28T12:19:56.905Z,5.35
2023-02-28T12:23:05.043Z,5.41
2023-02-28T12:26:12.401Z,5.31
2023-02-28T12:29:20.426Z,5.17
2023-02-28T12:32:28.302Z,5.09
2023-02-28T12:35:36.237Z,5.09
2023-02-28T12:38:44.331Z,5.07
2023-02-28T12:41:52.331Z,5.02
2023-02-28T12:45:00.192Z,5.07
2023-02-28T12:48:07.961Z,5.09
2023-02-28T12:51:16.072Z,5.09
2023-02-28T12:54:23.411Z,5.22
2023-02-28T12:57:31.022Z,5.23
2023-02-28T13:00:38.960Z,5.23
2023-02-28T13:03:46.448Z,5.23
2023-02-28T13:06:54.623Z,5.20
2023-02-28T13:10:02.735Z,5.28
2023-02-28T13:13:10.213Z,5.17
2023-02-28T13:16:18.398Z,5.19
2023-02-28T13:19:26.359Z,5.27
2023-02-28T13:22:33.737Z,5.35
2023-02-28T13:25:42.419Z,5.64
2023-02-28T13:28:50.301Z,5.55
2023-02-28T13:31:58.014Z,5.38
2023-02-28T13:35:05.600Z,5.57
2023-02-28T13:38:13.283Z,5.66
2023-02-28T13:41:20.933Z,5.56
2023-02-28T13:44:28.313Z,5.38
2023-02-28T13:47:36.509Z,5.40
2023-02-28T13:50:43.954Z,5.41
2023-02-28T13:53:51.571Z,5.38
2023-02-28T13:56:59.384Z,5.40
2023-02-28T14:00:06.678Z,5.38
2023-02-28T14:03:14.433Z,5.37
2023-02-28T14:06:22.680Z,5.32
2023-02-28T14:09:30.162Z,5.28
2023-02-28T14:12:37.819Z,5.22
2023-02-28T14:15:46.113Z,5.20
2023-02-28T14:18:53.861Z,5.14
2023-02-28T14:22:01.782Z,5.12
2023-02-28T14:25:09.927Z,5.16
2023-02-28T14:28:17.642Z,5.13
2023-02-28T14:31:25.503Z,5.13
2023-02-28T14:34:33.446Z,5.14
2023-02-28T14:37:41.722Z,5.22
2023-02-28T14:40:49.712Z,5.10
2023-02-28T14:43:57.443Z,4.99
2023-02-28T14:47:05.768Z,5.05
2023-02-28T14:50:13.125Z,5.04
2023-02-28T14:53:21.234Z,5.09
2023-02-28T14:56:29.871Z,5.09
2023-02-28T14:59:37.302Z,5.04
2023-02-28T15:02:45.567Z,5.09
2023-02-28T15:05:53.573Z,5.17
2023-02-28T15:09:01.046Z,5.31
2023-02-28T15:12:09.283Z,5.30
2023-02-28T15:15:17.272Z,5.22
2023-02-28T15:18:24.708Z,5.31
2023-02-28T15:21:32.877Z,5.25
2023-02-28T15:24:40.675Z,5.19
2023-02-28T15:27:48.515Z,5.10
2023-02-28T15:30:56.526Z,5.17
2023-02-28T15:34:04.339Z,5.09
2023-02-28T15:37:12.190Z,5.09
2023-02-28T15:40:19.687Z,5.10
2023-02-28T15:43:28.003Z,5.07
2023-02-28T15:46:35.760Z,4.98
2023-02-28T15:49:45.289Z,4.91
2023-02-28T15:52:53.632Z,4.86
2023-02-28T15:56:01.544Z,4.77
2023-02-28T15:59:08.903Z,4.70
2023-02-28T16:02:16.912Z,4.67
2023-02-28T16:05:24.516Z,4.65
2023-02-28T16:08:32.253Z,4.55
2023-02-28T16:11:40.837Z,4.46
2023-02-28T16:14:48.452Z,4.37
2023-02-28T16:17:56.258Z,4.25
2023-02-28T16:21:03.748Z,4.16
2023-02-28T16:24:11.712Z,4.04
2023-02-28T16:27:19.436Z,3.94
2023-02-28T16:30:27.422Z,3.80
2023-02-28T16:33:35.749Z,3.71
2023-02-28T16:36:43.130Z,3.64
2023-02-28T16:39:51.954Z,3.54
2023-02-28T16:43:00.033Z,3.33
2023-02-28T16:46:07.405Z,3.10
2023-02-28T16:49:15.679Z,2.92
2023-02-28T16:52:23.681Z,2.77
2023-02-28T16:55:31.093Z,2.66
2023-02-28T16:58:39.238Z,2.37
2023-02-28T17:01:47.369Z,2.22
2023-02-28T17:04:55.207Z,2.10
2023-02-28T17:08:03.225Z,1.89
2023-02-28T17:11:10.902Z,1.75
2023-02-28T17:14:18.432Z,1.71
2023-02-28T17:17:26.513Z,1.68
2023-02-28T17:20:34.361Z,1.54
2023-02-28T17:23:42.086Z,1.40
2023-02-28T17:26:49.841Z,1.28
2023-02-28T17:29:57.868Z,1.14
2023-02-28T17:33:05.622Z,1.04
2023-02-28T17:36:13.231Z,0.92
2023-02-28T17:39:20.962Z,0.83
2023-02-28T17:42:28.800Z,0.80
2023-02-28T17:45:36.756Z,0.75
2023-02-28T17:48:46.107Z,0.79
2023-02-28T17:51:53.473Z,0.72
2023-02-28T17:55:01.746Z,0.76
2023-02-28T17:58:09.950Z,0.72
2023-02-28T18:01:17.633Z,0.65
2023-02-28T18:04:25.799Z,0.53
2023-02-28T18:07:33.690Z,0.39
2023-02-28T18:10:41.404Z,0.38
2023-02-28T18:13:49.420Z,0.28
2023-02-28T18:16:57.624Z,0.16
2023-02-28T18:20:05.047Z,0.05
2023-02-28T18:23:13.460Z,0.00
2023-02-28T18:26:21.273Z,-0.06
2023-02-28T18:29:29.231Z,-0.05
2023-02-28T18:32:37.124Z,-0.18
2023-02-28T18:35:44.845Z,-0.16
2023-02-28T18:38:52.589Z,-0.16
2023-02-28T18:42:00.531Z,-0.23
2023-02-28T18:45:08.207Z,-0.22
2023-02-28T18:48:16.060Z,-0.19
2023-02-28T18:51:23.797Z,-0.27
2023-02-28T18:54:32.007Z,-0.30
2023-02-28T18:57:39.833Z,-0.29
2023-02-28T19:00:47.814Z,-0.33
2023-02-28T19:03:56.036Z,-0.37
2023-02-28T19:07:03.722Z,-0.45
2023-02-28T19:10:11.375Z,-0.52
2023-02-28T19:13:19.840Z,-0.57
2023-02-28T19:16:27.408Z,-0.63
2023-02-28T19:19:35.621Z,-0.66
2023-02-28T19:22:43.976Z,-0.68
2023-02-28T19:25:51.426Z,-0.69
2023-02-28T19:28:59.636Z,-0.69
2023-02-28T19:32:07.636Z,-0.70
2023-02-28T19:35:14.925Z,-0.73
2023-02-28T19:38:22.936Z,-0.78
2023-02-28T19:41:31.238Z,-0.83
2023-02-28T19:44:38.764Z,-0.86
2023-02-28T19:47:46.798Z,-0.89
2023-02-28T19:50:54.749Z,-0.91
2023-02-28T19:54:02.715Z,-0.97
2023-02-28T19:57:10.949Z,-0.97
2023-02-28T20:00:18.600Z,-0.99
2023-02-28T20:03:26.371Z,-1.05
2023-02-28T20:06:34.662Z,-1.05
2023-02-28T20:09:42.431Z,-1.06
2023-02-28T20:12:50.060Z,-1.07
2023-02-28T20:15:57.572Z,-1.13
2023-02-28T20:19:05.355Z,-1.12
2023-02-28T20:22:13.161Z,-1.12
2023-02-28T20:25:20.846Z,-1.17
2023-02-28T20:28:28.710Z,-1.23
2023-02-28T20:31:36.678Z,-1.24
2023-02-28T20:34:44.058Z,-1.21
2023-02-28T20:37:52.259Z,-1.25
2023-02-28T20:41:00.063Z,-1.27
2023-02-28T20:44:07.811Z,-1.31
2023-02-28T20:47:15.918Z,-1.35
2023-02-28T20:50:23.411Z,-1.41
2023-02-28T20:53:31.340Z,-1.35
2023-02-28T20:56:39.336Z,-1.35
2023-02-28T20:59:46.788Z,-1.33
2023-02-28T21:02:55.260Z,-1.38
2023-02-28T21:06:02.974Z,-1.41
2023-02-28T21:09:10.384Z,-1.46
2023-02-28T21:12:18.320Z,-1.51
2023-02-28T21:15:26.302Z,-1.57
2023-02-28T21:18:34.050Z,-1.57
2023-02-28T21:21:42.021Z,-1.54
2023-02-28T21:24:49.956Z,-1.54
2023-02-28T21:27:57.557Z,-1.56
2023-02-28T21:31:05.457Z,-1.56
2023-02-28T21:34:12.977Z,-1.56
2023-02-28T21:37:20.710Z,-1.53
2023-02-28T21:40:28.266Z,-1.53
2023-02-28T21:43:36.293Z,-1.57
2023-02-28T21:46:44.678Z,-1.57
2023-02-28T21:49:52.118Z,-1.56
2023-02-28T21:53:00.216Z,-1.57
2023-02-28T21:56:08.184Z,-1.57
2023-02-28T21:59:15.588Z,-1.57
2023-02-28T22:02:23.414Z,-1.59
2023-02-28T22:05:31.589Z,-1.60
2023-02-28T22:08:38.952Z,-1.63
2023-02-28T22:11:46.642Z,-1.67
2023-02-28T22:14:54.360Z,-1.72
2023-02-28T22:18:02.032Z,-1.80
2023-02-28T22:21:10.100Z,-1.95
2023-02-28T22:24:18.188Z,-2.05
2023-02-28T22:27:26.159Z,-2.02
2023-02-28T22:30:34.453Z,-1.99
2023-02-28T22:33:42.111Z,-2.02
2023-02-28T22:36:49.876Z,-2.05
2023-02-28T22:39:57.832Z,-2.03
2023-02-28T22:43:05.710Z,-2.06
2023-02-28T22:46:13.271Z,-2.10
2023-02-28T22:49:21.171Z,-2.13
2023-02-28T22:52:29.414Z,-2.16
2023-02-28T22:55:37.321Z,-2.18
2023-02-28T22:58:45.819Z,-2.21
2023-02-28T23:01:53.779Z,-2.24
2023-02-28T23:05:01.455Z,-2.39
2023-02-28T23:08:09.392Z,-2.47
2023-02-28T23:11:17.596Z,-2.42
2023-02-28T23:14:24.903Z,-2.39
2023-02-28T23:17:32.850Z,-2.39
2023-02-28T23:20:40.824Z,-2.42
2023-02-28T23:23:48.173Z,-2.50
2023-02-28T23:26:56.134Z,-2.54
2023-02-28T23:30:03.916Z,-2.61
2023-02-28T23:33:11.378Z,-2.61
2023-02-28T23:36:19.633Z,-2.58
2023-02-28T23:39:27.568Z,-2.61
2023-02-28T23:42:34.995Z,-2.63
2023-02-28T23:45:43.071Z,-2.68
2023-02-28T23:48:50.900Z,-2.66
2023-02-28T23:51:58.740Z,-2.69
2023-02-28T23:55:07.072Z,-2.68
2023-02-28T23:58:14.842Z,-2.76
